createdAt,value
2022-11-09T00:01:04.152Z,9.45
2022-11-09T00:03:32.157Z,9.50
2022-11-09T00:06:01.099Z,9.45
2022-11-09T00:08:30.023Z,9.29
2022-11-09T00:11:03.838Z,9.24
2022-11-09T00:13:33.394Z,9.07
2022-11-09T00:16:02.199Z,9.46
2022-11-09T00:18:30.798Z,9.48
2022-11-09T00:20:58.955Z,9.54
2022-11-09T00:23:26.996Z,9.30
2022-11-09T00:25:54.837Z,9.66
2022-11-09T00:28:22.684Z,9.64
2022-11-09T00:30:51.860Z,9.59
2022-11-09T00:33:19.978Z,9.52
2022-11-09T00:35:48.050Z,9.66
2022-11-09T00:38:16.173Z,9.65
2022-11-09T00:40:44.277Z,9.40
2022-11-09T00:43:12.650Z,9.50
2022-11-09T00:45:40.764Z,9.66
2022-11-09T00:48:13.206Z,9.67
2022-11-09T00:50:41.041Z,9.74
2022-11-09T00:53:09.079Z,9.74
2022-11-09T00:55:36.925Z,9.72
2022-11-09T00:58:05.167Z,9.75
2022-11-09T01:00:33.013Z,9.64
2022-11-09T01:03:00.846Z,9.57
2022-11-09T01:05:30.072Z,9.54
2022-11-09T01:07:57.945Z,9.37
2022-11-09T01:10:25.764Z,9.33
2022-11-09T01:12:53.807Z,9.54
2022-11-09T01:15:21.700Z,9.56
2022-11-09T01:17:49.559Z,9.57
2022-11-09T01:20:17.943Z,9.38
2022-11-09T01:22:47.196Z,9.72
2022-11-09T01:25:15.530Z,9.71
2022-11-09T01:27:43.412Z,9.67
2022-11-09T01:30:12.132Z,9.77
2022-11-09T01:32:39.980Z,9.80
2022-11-09T01:35:08.348Z,9.69
2022-11-09T01:37:36.254Z,9.76
2022-11-09T01:40:08.827Z,9.63
2022-11-09T01:42:38.480Z,9.70
2022-11-09T01:45:23.803Z,9.73
2022-11-09T01:47:55.644Z,9.69
2022-11-09T01:50:32.195Z,9.55
2022-11-09T01:53:03.848Z,9.71
2022-11-09T01:55:33.176Z,9.88
2022-11-09T01:58:07.055Z,9.90
2022-11-09T02:00:38.959Z,9.49
2022-11-09T02:03:10.686Z,9.75
2022-11-09T02:05:41.690Z,9.40
2022-11-09T02:08:11.759Z,9.82
2022-11-09T02:10:47.452Z,9.88
2022-11-09T02:13:18.910Z,9.98
2022-11-09T02:15:47.053Z,9.98
2022-11-09T02:18:15.600Z,9.97
2022-11-09T02:20:50.370Z,9.88
2022-11-09T02:23:19.199Z,9.97
2022-11-09T02:25:51.542Z,9.71
2022-11-09T02:28:19.671Z,9.95
2022-11-09T02:30:51.960Z,9.98
2022-11-09T02:33:20.126Z,10.00
2022-11-09T02:35:49.656Z,9.94
2022-11-09T02:38:17.558Z,9.85
2022-11-09T02:40:48.160Z,9.85
2022-11-09T02:43:16.901Z,9.79
2022-11-09T02:45:45.019Z,9.84
2022-11-09T02:48:12.899Z,9.85
2022-11-09T02:50:40.740Z,9.84
2022-11-09T02:53:10.034Z,9.74
2022-11-09T02:55:37.891Z,9.86
2022-11-09T02:58:05.720Z,9.81
2022-11-09T03:00:33.550Z,9.84
2022-11-09T03:03:01.640Z,9.87
2022-11-09T03:05:29.525Z,9.91
2022-11-09T03:07:57.704Z,9.91
2022-11-09T03:10:27.135Z,9.99
2022-11-09T03:12:55.979Z,10.00
2022-11-09T03:15:23.831Z,9.95
2022-11-09T03:17:51.700Z,9.91
2022-11-09T03:20:19.766Z,9.88
2022-11-09T03:22:47.580Z,9.94
2022-11-09T03:25:15.523Z,9.90
2022-11-09T03:27:44.727Z,9.89
2022-11-09T03:30:13.085Z,9.88
2022-11-09T03:32:40.945Z,9.79
2022-11-09T03:35:09.610Z,9.62
2022-11-09T03:37:37.505Z,9.55
2022-11-09T03:40:06.224Z,9.23
2022-11-09T03:42:34.089Z,9.47
2022-11-09T03:45:03.310Z,9.48
2022-11-09T03:47:31.190Z,9.55
2022-11-09T03:49:59.183Z,9.51
2022-11-09T03:52:27.038Z,9.52
2022-11-09T03:54:54.881Z,9.45
2022-11-09T03:57:22.807Z,9.27
2022-11-09T03:59:50.662Z,9.41
2022-11-09T04:02:19.895Z,9.33
2022-11-09T04:04:47.794Z,9.31
2022-11-09T04:07:16.034Z,9.29
2022-11-09T04:09:43.941Z,9.31
2022-11-09T04:12:11.803Z,9.25
2022-11-09T04:14:39.681Z,9.20
2022-11-09T04:17:07.671Z,9.22
2022-11-09T04:19:37.228Z,9.21
2022-11-09T04:22:05.083Z,9.10
2022-11-09T04:24:32.973Z,9.17
2022-11-09T04:27:01.017Z,9.15
2022-11-09T04:29:28.902Z,9.16
2022-11-09T04:31:56.761Z,9.25
2022-11-09T04:34:24.604Z,9.11
2022-11-09T04:36:53.888Z,9.21
2022-11-09T04:39:21.711Z,9.16
2022-11-09T04:41:49.564Z,9.14
2022-11-09T04:44:17.427Z,9.12
2022-11-09T04:46:45.306Z,8.98
2022-11-09T04:49:13.152Z,9.09
2022-11-09T04:51:41.064Z,9.12
2022-11-09T04:54:10.348Z,9.13
2022-11-09T04:56:38.202Z,9.06
2022-11-09T04:59:06.056Z,9.19
2022-11-09T05:01:35.283Z,9.08
2022-11-09T05:04:03.241Z,9.01
2022-11-09T05:06:34.160Z,9.02
2022-11-09T05:09:03.754Z,8.02
2022-11-09T05:11:33.930Z,9.04
2022-11-09T05:14:01.862Z,9.04
2022-11-09T05:16:30.188Z,9.03
2022-11-09T05:18:58.046Z,9.09
2022-11-09T05:21:25.931Z,9.12
2022-11-09T05:24:02.857Z,9.10
2022-11-09T05:26:33.958Z,9.03
2022-11-09T05:29:03.368Z,8.78
2022-11-09T05:31:32.015Z,9.03
2022-11-09T05:34:00.433Z,9.03
2022-11-09T05:36:30.502Z,9.05
2022-11-09T05:38:59.086Z,8.60
2022-11-09T05:41:27.529Z,8.92
2022-11-09T05:43:56.737Z,8.97
2022-11-09T05:46:25.249Z,8.97
2022-11-09T05:48:53.131Z,9.00
2022-11-09T05:51:20.970Z,9.01
2022-11-09T05:53:48.832Z,8.98
2022-11-09T05:56:16.987Z,9.04
2022-11-09T05:58:44.863Z,9.11
2022-11-09T06:01:15.916Z,9.13
2022-11-09T06:03:44.428Z,9.19
2022-11-09T06:06:14.528Z,9.31
2022-11-09T06:08:42.907Z,9.41
2022-11-09T06:11:16.798Z,8.54
2022-11-09T06:13:46.321Z,9.63
2022-11-09T06:16:16.371Z,9.57
2022-11-09T06:18:44.258Z,9.71
2022-11-09T06:21:12.169Z,10.06
2022-11-09T06:23:40.033Z,10.14
2022-11-09T06:26:10.018Z,10.08
2022-11-09T06:28:38.559Z,10.05
2022-11-09T06:31:08.423Z,10.31
2022-11-09T06:33:37.726Z,10.30
2022-11-09T06:36:06.527Z,10.89
2022-11-09T06:38:34.627Z,10.78
2022-11-09T06:41:02.541Z,11.34
2022-11-09T06:43:30.530Z,11.73
2022-11-09T06:45:58.628Z,12.05
2022-11-09T06:48:26.560Z,12.51
2022-11-09T06:50:56.039Z,12.88
2022-11-09T06:53:24.230Z,13.25
2022-11-09T06:55:52.183Z,13.30
2022-11-09T06:58:20.834Z,13.85
2022-11-09T07:00:48.858Z,13.62
2022-11-09T07:03:18.421Z,13.95
2022-11-09T07:05:47.038Z,14.30
2022-11-09T07:08:17.200Z,14.45
2022-11-09T07:10:45.753Z,14.21
2022-11-09T07:13:13.971Z,14.77
2022-11-09T07:15:41.992Z,14.73
2022-11-09T07:18:12.393Z,14.49
2022-11-09T07:20:40.231Z,14.92
2022-11-09T07:23:08.099Z,14.84
2022-11-09T07:25:37.361Z,15.11
2022-11-09T07:28:05.879Z,15.29
2022-11-09T07:30:33.826Z,15.38
2022-11-09T07:33:09.042Z,14.34
2022-11-09T07:35:38.077Z,15.41
2022-11-09T07:38:06.082Z,15.69
2022-11-09T07:40:34.089Z,15.62
2022-11-09T07:43:04.569Z,16.03
2022-11-09T07:45:34.018Z,16.19
2022-11-09T07:48:04.504Z,16.00
2022-11-09T07:50:33.812Z,16.11
2022-11-09T07:53:02.844Z,16.20
2022-11-09T07:55:32.226Z,16.28
2022-11-09T07:58:01.819Z,16.23
2022-11-09T08:00:33.330Z,16.44
2022-11-09T08:03:01.443Z,16.73
2022-11-09T08:05:37.511Z,17.17
2022-11-09T08:08:07.357Z,16.89
2022-11-09T08:10:36.818Z,16.27
2022-11-09T08:13:07.107Z,16.72
2022-11-09T08:15:38.372Z,16.82
2022-11-09T08:18:08.040Z,16.48
2022-11-09T08:20:36.275Z,16.11
2022-11-09T08:23:05.121Z,17.18
2022-11-09T08:25:34.161Z,17.28
2022-11-09T08:28:03.524Z,17.34
2022-11-09T08:30:32.070Z,17.17
2022-11-09T08:33:03.388Z,17.35
2022-11-09T08:35:31.783Z,17.23
2022-11-09T08:38:02.873Z,17.38
2022-11-09T08:40:31.966Z,17.15
2022-11-09T08:43:04.060Z,17.33
2022-11-09T08:45:33.724Z,17.37
2022-11-09T08:48:04.253Z,17.22
2022-11-09T08:50:33.514Z,17.24
2022-11-09T08:53:02.039Z,17.31
2022-11-09T08:55:31.301Z,17.53
2022-11-09T08:58:01.588Z,17.88
2022-11-09T09:00:29.922Z,17.92
2022-11-09T09:02:58.050Z,17.89
2022-11-09T09:05:27.675Z,17.95
2022-11-09T09:07:55.557Z,18.26
2022-11-09T09:10:23.454Z,18.56
2022-11-09T09:12:51.354Z,18.87
2022-11-09T09:15:19.401Z,19.02
2022-11-09T09:17:47.325Z,18.30
2022-11-09T09:20:16.340Z,18.71
2022-11-09T09:22:45.646Z,18.65
2022-11-09T09:25:13.558Z,18.83
2022-11-09T09:27:41.472Z,18.99
2022-11-09T09:30:10.291Z,18.94
2022-11-09T09:32:38.203Z,18.68
2022-11-09T09:35:07.032Z,19.11
2022-11-09T09:37:34.930Z,18.88
2022-11-09T09:40:04.366Z,18.64
2022-11-09T09:42:35.955Z,19.03
2022-11-09T09:45:06.907Z,19.07
2022-11-09T09:47:47.340Z,19.62
2022-11-09T09:50:19.895Z,19.57
2022-11-09T09:53:22.056Z,18.71
2022-11-09T09:55:47.714Z,18.42
2022-11-09T09:58:21.969Z,19.29
2022-11-09T10:00:56.002Z,19.83
2022-11-09T10:03:23.942Z,19.94
2022-11-09T10:05:59.583Z,19.79
2022-11-09T10:08:38.393Z,19.71
2022-11-09T10:11:17.874Z,19.49
2022-11-09T10:14:02.590Z,19.34
2022-11-09T10:16:39.173Z,18.50
2022-11-09T10:19:36.929Z,19.89
2022-11-09T10:22:12.036Z,20.50
2022-11-09T10:27:44.095Z,19.74
2022-11-09T10:30:16.405Z,20.14
2022-11-09T10:32:46.887Z,20.19
2022-11-09T10:35:21.386Z,20.20
2022-11-09T10:37:51.082Z,19.94
2022-11-09T10:40:24.121Z,19.98
2022-11-09T10:42:56.378Z,20.39
2022-11-09T10:45:31.722Z,20.03
2022-11-09T10:47:59.895Z,20.09
2022-11-09T10:50:33.549Z,19.79
2022-11-09T10:53:19.724Z,20.28
2022-11-09T10:55:53.050Z,20.60
2022-11-09T10:58:27.860Z,20.49
2022-11-09T11:01:02.031Z,20.83
2022-11-09T11:03:30.991Z,20.58
2022-11-09T11:06:00.148Z,20.45
2022-11-09T11:08:40.525Z,20.41
2022-11-09T11:11:35.206Z,20.40
2022-11-09T11:14:22.787Z,20.44
2022-11-09T11:16:53.495Z,20.27
2022-11-09T11:19:36.004Z,20.05
2022-11-09T11:22:23.138Z,19.92
2022-11-09T11:24:58.532Z,20.07
2022-11-09T11:27:33.082Z,20.27
2022-11-09T11:30:11.650Z,20.22
2022-11-09T11:32:39.546Z,20.10
2022-11-09T11:35:14.438Z,19.84
2022-11-09T11:37:50.935Z,19.26
2022-11-09T11:40:26.519Z,19.31
2022-11-09T11:43:29.933Z,19.37
2022-11-09T11:46:10.230Z,19.70
2022-11-09T11:49:07.580Z,19.94
2022-11-09T11:51:46.382Z,20.30
2022-11-09T11:54:24.142Z,20.61
2022-11-09T11:57:02.322Z,20.46
2022-11-09T11:59:55.083Z,20.30
2022-11-09T12:02:54.823Z,20.05
2022-11-09T12:05:39.278Z,19.84
2022-11-09T12:08:16.635Z,19.79
2022-11-09T12:10:53.451Z,19.76
2022-11-09T12:13:44.483Z,19.43
2022-11-09T12:16:20.653Z,20.05
2022-11-09T12:19:01.648Z,20.39
2022-11-09T12:21:37.578Z,20.32
2022-11-09T12:24:26.425Z,20.10
2022-11-09T12:30:09.874Z,19.24
2022-11-09T12:32:45.372Z,19.76
2022-11-09T12:35:30.804Z,20.24
2022-11-09T12:38:04.694Z,20.58
2022-11-09T12:40:35.860Z,20.49
2022-11-09T12:43:15.594Z,20.47
2022-11-09T12:45:45.470Z,20.35
2022-11-09T12:48:26.029Z,20.47
2022-11-09T12:50:55.781Z,20.61
2022-11-09T12:53:26.628Z,20.43
2022-11-09T12:56:00.547Z,20.27
2022-11-09T12:58:30.671Z,20.10
2022-11-09T13:01:00.161Z,20.29
2022-11-09T13:03:30.959Z,20.19
2022-11-09T13:06:23.059Z,19.80
2022-11-09T13:09:01.023Z,19.66
2022-11-09T13:11:38.787Z,19.94
2022-11-09T13:14:38.471Z,19.81
2022-11-09T13:17:39.360Z,19.75
2022-11-09T13:20:54.498Z,19.63
2022-11-09T13:23:54.666Z,19.36
2022-11-09T13:26:26.358Z,19.41
2022-11-09T13:29:25.457Z,19.22
2022-11-09T13:32:33.613Z,19.11
2022-11-09T13:35:02.760Z,18.93
2022-11-09T13:37:38.941Z,18.98
2022-11-09T13:40:51.160Z,18.71
2022-11-09T13:43:23.471Z,18.58
2022-11-09T13:45:54.139Z,18.54
2022-11-09T13:48:34.529Z,18.39
2022-11-09T13:51:05.320Z,18.36
2022-11-09T13:53:52.828Z,18.31
2022-11-09T13:56:27.929Z,18.28
2022-11-09T13:59:03.966Z,18.16
2022-11-09T14:01:37.938Z,18.06
2022-11-09T14:04:06.496Z,18.06
2022-11-09T14:06:34.942Z,18.04
2022-11-09T14:09:04.211Z,17.97
2022-11-09T14:11:51.852Z,17.99
2022-11-09T14:14:52.570Z,17.81
2022-11-09T14:17:29.032Z,17.74
2022-11-09T14:20:11.892Z,17.37
2022-11-09T14:22:41.725Z,17.72
2022-11-09T14:25:16.090Z,17.65
2022-11-09T14:27:51.517Z,17.56
2022-11-09T14:30:23.590Z,17.48
2022-11-09T14:32:54.142Z,17.48
2022-11-09T14:35:28.418Z,17.41
2022-11-09T14:37:57.945Z,17.35
2022-11-09T14:40:28.224Z,16.99
2022-11-09T14:43:00.661Z,17.07
2022-11-09T14:45:30.311Z,17.03
2022-11-09T14:48:00.671Z,17.06
2022-11-09T14:50:31.638Z,17.10
2022-11-09T14:53:01.346Z,16.93
2022-11-09T14:55:29.975Z,17.00
2022-11-09T14:57:58.320Z,16.85
2022-11-09T15:00:31.376Z,16.64
2022-11-09T15:02:59.588Z,16.76
2022-11-09T15:05:36.048Z,16.73
2022-11-09T15:08:03.955Z,16.66
2022-11-09T15:10:32.681Z,16.60
2022-11-09T15:13:04.295Z,16.50
2022-11-09T15:15:36.342Z,16.28
2022-11-09T15:18:04.439Z,16.33
2022-11-09T15:20:34.743Z,16.26
2022-11-09T15:23:04.696Z,16.14
2022-11-09T15:25:35.660Z,16.10
2022-11-09T15:28:21.551Z,15.89
2022-11-09T15:31:12.753Z,15.75
2022-11-09T15:33:47.354Z,15.69
2022-11-09T15:36:28.639Z,15.64
2022-11-09T15:38:59.741Z,15.43
2022-11-09T15:41:28.316Z,15.43
2022-11-09T15:43:56.484Z,15.04
2022-11-09T15:46:27.942Z,15.21
2022-11-09T15:48:58.399Z,15.14
2022-11-09T15:51:26.256Z,15.02
2022-11-09T15:53:54.307Z,14.89
2022-11-09T15:56:23.823Z,14.88
2022-11-09T15:58:53.438Z,14.82
2022-11-09T16:01:21.304Z,14.70
2022-11-09T16:03:50.643Z,14.71
2022-11-09T16:06:22.312Z,14.39
2022-11-09T16:08:51.164Z,14.61
2022-11-09T16:11:19.028Z,14.52
2022-11-09T16:13:46.931Z,14.51
2022-11-09T16:16:16.799Z,14.48
2022-11-09T16:18:44.747Z,14.44
2022-11-09T16:21:16.479Z,14.09
2022-11-09T16:23:44.688Z,14.22
2022-11-09T16:26:15.284Z,14.14
2022-11-09T16:28:44.275Z,14.13
2022-11-09T16:31:13.458Z,14.12
2022-11-09T16:33:41.786Z,13.96
2022-11-09T16:36:13.745Z,13.97
2022-11-09T16:38:45.764Z,13.80
2022-11-09T16:41:15.547Z,13.77
2022-11-09T16:43:45.208Z,13.68
2022-11-09T16:46:14.768Z,13.55
2022-11-09T16:48:42.599Z,13.41
2022-11-09T16:51:10.452Z,13.30
2022-11-09T16:53:38.320Z,13.26
2022-11-09T16:56:08.083Z,13.32
2022-11-09T16:58:36.134Z,13.20
2022-11-09T17:01:12.711Z,13.17
2022-11-09T17:03:41.616Z,13.36
2022-11-09T17:06:11.254Z,13.28
2022-11-09T17:08:39.916Z,12.79
2022-11-09T17:11:11.205Z,13.17
2022-11-09T17:13:39.660Z,13.16
2022-11-09T17:16:09.646Z,13.12
2022-11-09T17:18:38.189Z,13.07
2022-11-09T17:21:11.164Z,12.95
2022-11-09T17:23:39.238Z,12.90
2022-11-09T17:26:09.611Z,12.87
2022-11-09T17:28:42.645Z,12.56
2022-11-09T17:31:13.015Z,12.58
2022-11-09T17:33:40.972Z,12.46
2022-11-09T17:36:11.390Z,11.92
2022-11-09T17:38:40.250Z,12.15
2022-11-09T17:41:11.607Z,12.09
2022-11-09T17:43:41.111Z,12.01
2022-11-09T17:46:10.823Z,11.88
2022-11-09T17:48:40.312Z,11.98
2022-11-09T17:51:08.816Z,11.93
2022-11-09T17:53:36.963Z,11.83
2022-11-09T17:56:05.537Z,11.85
2022-11-09T17:58:34.995Z,11.78
2022-11-09T18:01:07.263Z,11.71
2022-11-09T18:03:36.412Z,11.94
2022-11-09T18:06:04.855Z,11.93
2022-11-09T18:08:32.777Z,11.98
2022-11-09T18:11:00.841Z,12.01
2022-11-09T18:13:28.999Z,11.74
2022-11-09T18:15:58.218Z,11.98
2022-11-09T18:18:26.076Z,11.91
2022-11-09T18:20:54.031Z,11.94
2022-11-09T18:23:21.882Z,11.97
2022-11-09T18:25:57.529Z,11.67
2022-11-09T18:28:25.427Z,12.09
2022-11-09T18:30:53.728Z,12.01
2022-11-09T18:33:23.012Z,11.93
2022-11-09T18:35:57.472Z,11.64
2022-11-09T18:38:29.114Z,11.68
2022-11-09T18:40:59.981Z,11.55
2022-11-09T18:43:28.123Z,11.45
2022-11-09T18:45:57.416Z,11.42
2022-11-09T18:48:27.183Z,11.34
2022-11-09T18:50:56.536Z,11.31
2022-11-09T18:53:28.134Z,11.31
2022-11-09T18:56:06.277Z,11.14
2022-11-09T18:58:35.518Z,11.21
2022-11-09T19:01:05.125Z,11.18
2022-11-09T19:03:34.728Z,11.20
2022-11-09T19:06:06.456Z,11.06
2022-11-09T19:08:52.062Z,11.11
2022-11-09T19:11:20.144Z,10.73
2022-11-09T19:13:48.111Z,11.01
2022-11-09T19:16:16.686Z,10.81
2022-11-09T19:18:46.050Z,10.94
2022-11-09T19:21:34.055Z,10.96
2022-11-09T19:24:02.021Z,10.98
2022-11-09T19:26:29.979Z,11.00
2022-11-09T19:28:57.899Z,10.94
2022-11-09T19:31:26.536Z,10.96
2022-11-09T19:33:55.815Z,10.86
2022-11-09T19:36:30.979Z,10.94
2022-11-09T19:39:00.055Z,10.87
2022-11-09T19:41:27.990Z,10.91
2022-11-09T19:43:58.726Z,10.85
2022-11-09T19:46:27.402Z,10.83
2022-11-09T19:48:56.619Z,10.79
2022-11-09T19:51:24.993Z,10.74
2022-11-09T19:53:54.334Z,10.69
2022-11-09T19:56:23.020Z,10.66
2022-11-09T19:58:52.495Z,10.45
2022-11-09T20:01:21.294Z,10.67
2022-11-09T20:03:50.523Z,10.65
2022-11-09T20:06:20.587Z,10.65
2022-11-09T20:08:48.774Z,10.66
2022-11-09T20:11:32.539Z,10.64
2022-11-09T20:14:00.473Z,10.61
2022-11-09T20:16:28.859Z,10.55
2022-11-09T20:18:56.974Z,10.53
2022-11-09T20:21:26.226Z,10.59
2022-11-09T20:23:54.411Z,10.61
2022-11-09T20:26:22.514Z,10.60
2022-11-09T20:28:50.391Z,10.62
2022-11-09T20:31:20.522Z,10.64
2022-11-09T20:33:48.394Z,10.66
2022-11-09T20:36:18.615Z,10.68
2022-11-09T20:38:48.690Z,10.29
2022-11-09T20:41:18.014Z,10.53
2022-11-09T20:43:48.451Z,10.60
2022-11-09T20:46:18.194Z,10.56
2022-11-09T20:48:54.171Z,10.60
2022-11-09T20:51:24.144Z,10.59
2022-11-09T20:53:53.618Z,10.58
2022-11-09T20:56:22.129Z,9.49
2022-11-09T20:58:50.106Z,10.57
2022-11-09T21:01:19.890Z,10.53
2022-11-09T21:03:48.874Z,10.15
2022-11-09T21:06:16.825Z,10.52
2022-11-09T21:08:46.138Z,10.47
2022-11-09T21:11:15.331Z,10.35
2022-11-09T21:13:44.310Z,10.31
2022-11-09T21:16:13.654Z,10.22
2022-11-09T21:18:41.997Z,9.94
2022-11-09T21:21:12.107Z,10.13
2022-11-09T21:23:58.298Z,9.88
2022-11-09T21:26:45.636Z,10.01
2022-11-09T21:29:32.422Z,9.44
2022-11-09T21:32:00.472Z,9.93
2022-11-09T21:34:32.709Z,9.95
2022-11-09T21:37:03.506Z,9.71
2022-11-09T21:39:31.359Z,9.86
2022-11-09T21:42:00.900Z,9.82
2022-11-09T21:44:30.138Z,9.46
2022-11-09T21:46:58.676Z,9.69
2022-11-09T21:49:26.639Z,9.69
2022-11-09T21:51:54.959Z,9.49
2022-11-09T21:54:23.103Z,9.32
2022-11-09T21:56:52.282Z,9.45
2022-11-09T21:59:21.578Z,9.59
2022-11-09T22:01:49.544Z,9.62
2022-11-09T22:04:17.689Z,9.65
2022-11-09T22:06:45.742Z,9.34
2022-11-09T22:09:16.505Z,9.57
2022-11-09T22:12:02.096Z,9.61
2022-11-09T22:14:48.775Z,9.13
2022-11-09T22:17:16.700Z,9.51
2022-11-09T22:20:01.930Z,9.45
2022-11-09T22:22:31.188Z,9.31
2022-11-09T22:24:59.113Z,9.40
2022-11-09T22:27:27.115Z,9.44
2022-11-09T22:29:56.350Z,9.20
2022-11-09T22:32:24.254Z,9.24
2022-11-09T22:34:52.069Z,9.21
2022-11-09T22:37:19.979Z,9.16
2022-11-09T22:39:47.883Z,9.12
2022-11-09T22:42:15.860Z,9.02
2022-11-09T22:44:43.731Z,8.96
2022-11-09T22:47:13.401Z,8.88
2022-11-09T22:49:41.267Z,8.80
2022-11-09T22:52:09.518Z,8.80
2022-11-09T22:54:39.711Z,8.80
2022-11-09T22:57:07.569Z,8.77
2022-11-09T22:59:35.408Z,8.73
2022-11-09T23:02:03.371Z,8.75
2022-11-09T23:04:32.587Z,8.66
2022-11-09T23:07:00.543Z,8.89
2022-11-09T23:09:28.425Z,9.53
2022-11-09T23:11:56.387Z,10.07
2022-11-09T23:14:44.304Z,10.25
2022-11-09T23:17:26.046Z,10.00
2022-11-09T23:19:55.254Z,9.28
2022-11-09T23:22:23.087Z,8.81
2022-11-09T23:25:08.477Z,8.52
2022-11-09T23:27:36.322Z,8.18
2022-11-09T23:30:04.720Z,8.19
2022-11-09T23:32:32.543Z,8.06
2022-11-09T23:35:01.737Z,7.93
2022-11-09T23:37:29.589Z,7.84
2022-11-09T23:39:57.412Z,7.95
2022-11-09T23:42:25.241Z,7.95
2022-11-09T23:44:53.096Z,7.95
2022-11-09T23:47:21.118Z,8.01
2022-11-09T23:49:49.010Z,7.91
2022-11-09T23:52:18.228Z,7.92
2022-11-09T23:54:46.200Z,7.92
2022-11-09T23:57:14.175Z,7.76
2022-11-09T23:59:42.052Z,7.73
